Nambucca Heads, Australia
Current Conditions -  °F | °C
As of 9:00 AM on Wednesday 26 Nov 2014 (Local Time) from YCFS Reporting Station
Drizzle Drizzle  
Wind Chill: 20°   Ceiling: 1600
Heat Index: 20°   Visibility: 3mi
Dew Point: 19°   Wind: 10mph
Humidity: 94%   Direction: 230°SW
Pressure: 30.09"   Gusts: NA
Location:  30.64°S, 153°E
Report Text: YCFS 252200Z AUTO 23009KT 5000 DZ BKN016 BKN035 20/19 Q1019 RERA
Loading
Personal Weather Stations






























Interactive Weather Map New forecast layout! Learn more

10-Day Weather Forecast

Advertisements
Track Severe Weather on mobile